sensor_id;sensor_type;location;lat;lon;timestamp;temperature;humidity
2851;DHT22;1433;49.976;8.342;2024-02-21T00:00:57;8.30;99.90
2851;DHT22;1433;49.976;8.342;2024-02-21T00:03:23;8.30;99.90
2851;DHT22;1433;49.976;8.342;2024-02-21T00:05:49;8.30;99.90
2851;DHT22;1433;49.976;8.342;2024-02-21T00:08:15;8.30;99.90
2851;DHT22;1433;49.976;8.342;2024-02-21T00:10:41;8.30;99.90
2851;DHT22;1433;49.976;8.342;2024-02-21T00:13:06;8.30;99.90
2851;DHT22;1433;49.976;8.342;2024-02-21T00:15:32;8.30;99.90
2851;DHT22;1433;49.976;8.342;2024-02-21T00:17:58;8.30;99.90
2851;DHT22;1433;49.976;8.342;2024-02-21T00:20:24;8.30;99.90
2851;DHT22;1433;49.976;8.342;2024-02-21T00:22:51;8.30;99.90
2851;DHT22;1433;49.976;8.342;2024-02-21T00:25:17;8.30;99.90
2851;DHT22;1433;49.976;8.342;2024-02-21T00:27:43;8.30;99.90
2851;DHT22;1433;49.976;8.342;2024-02-21T00:30:09;8.20;99.90
2851;DHT22;1433;49.976;8.342;2024-02-21T00:32:36;8.20;99.90
2851;DHT22;1433;49.976;8.342;2024-02-21T00:35:02;8.20;99.90
2851;DHT22;1433;49.976;8.342;2024-02-21T00:37:28;8.20;99.90
2851;DHT22;1433;49.976;8.342;2024-02-21T00:39:54;8.20;99.90
2851;DHT22;1433;49.976;8.342;2024-02-21T00:42:20;8.20;99.90
2851;DHT22;1433;49.976;8.342;2024-02-21T00:44:46;8.40;99.90
2851;DHT22;1433;49.976;8.342;2024-02-21T00:47:12;8.20;99.90
2851;DHT22;1433;49.976;8.342;2024-02-21T00:49:38;8.40;99.90
2851;DHT22;1433;49.976;8.342;2024-02-21T00:52:04;8.10;99.90
2851;DHT22;1433;49.976;8.342;2024-02-21T00:54:30;8.10;99.90
2851;DHT22;1433;49.976;8.342;2024-02-21T00:56:56;8.10;99.90
2851;DHT22;1433;49.976;8.342;2024-02-21T00:59:22;8.10;99.90
2851;DHT22;1433;49.976;8.342;2024-02-21T01:01:48;8.10;99.90
2851;DHT22;1433;49.976;8.342;2024-02-21T01:04:14;8.10;99.90
2851;DHT22;1433;49.976;8.342;2024-02-21T01:06:40;8.10;99.90
2851;DHT22;1433;49.976;8.342;2024-02-21T01:09:08;8.20;99.90
2851;DHT22;1433;49.976;8.342;2024-02-21T01:11:34;8.20;99.90
2851;DHT22;1433;49.976;8.342;2024-02-21T01:14:00;8.20;99.90
2851;DHT22;1433;49.976;8.342;2024-02-21T01:16:26;8.20;99.90
2851;DHT22;1433;49.976;8.342;2024-02-21T01:18:52;8.20;99.90
2851;DHT22;1433;49.976;8.342;2024-02-21T01:21:18;8.40;99.90
2851;DHT22;1433;49.976;8.342;2024-02-21T01:23:43;8.30;99.90
2851;DHT22;1433;49.976;8.342;2024-02-21T01:26:09;8.20;99.90
2851;DHT22;1433;49.976;8.342;2024-02-21T01:28:38;8.20;99.90
2851;DHT22;1433;49.976;8.342;2024-02-21T01:31:04;8.20;99.90
2851;DHT22;1433;49.976;8.342;2024-02-21T01:33:30;8.20;99.90
2851;DHT22;1433;49.976;8.342;2024-02-21T01:36:03;8.20;99.90
2851;DHT22;1433;49.976;8.342;2024-02-21T01:38:29;8.20;99.90
2851;DHT22;1433;49.976;8.342;2024-02-21T01:40:57;8.20;99.90
2851;DHT22;1433;49.976;8.342;2024-02-21T01:43:23;8.20;99.90
2851;DHT22;1433;49.976;8.342;2024-02-21T01:45:50;8.20;99.90
2851;DHT22;1433;49.976;8.342;2024-02-21T01:48:19;8.20;99.90
2851;DHT22;1433;49.976;8.342;2024-02-21T01:50:45;8.20;99.90
2851;DHT22;1433;49.976;8.342;2024-02-21T01:53:18;8.20;99.90
2851;DHT22;1433;49.976;8.342;2024-02-21T01:55:46;8.10;99.90
2851;DHT22;1433;49.976;8.342;2024-02-21T01:58:15;8.10;99.90
2851;DHT22;1433;49.976;8.342;2024-02-21T02:00:42;8.10;99.90
2851;DHT22;1433;49.976;8.342;2024-02-21T02:03:13;8.00;99.90
2851;DHT22;1433;49.976;8.342;2024-02-21T02:05:49;8.10;99.90
2851;DHT22;1433;49.976;8.342;2024-02-21T02:08:17;8.00;99.90
2851;DHT22;1433;49.976;8.342;2024-02-21T02:10:45;8.00;99.90
2851;DHT22;1433;49.976;8.342;2024-02-21T02:13:11;7.90;99.90
2851;DHT22;1433;49.976;8.342;2024-02-21T02:18:07;8.00;99.90
2851;DHT22;1433;49.976;8.342;2024-02-21T02:20:34;7.80;99.90
2851;DHT22;1433;49.976;8.342;2024-02-21T02:23:12;7.80;99.90
2851;DHT22;1433;49.976;8.342;2024-02-21T02:25:42;7.80;99.90
2851;DHT22;1433;49.976;8.342;2024-02-21T02:28:09;7.80;99.90
2851;DHT22;1433;49.976;8.342;2024-02-21T02:30:36;7.80;99.90
2851;DHT22;1433;49.976;8.342;2024-02-21T02:33:05;7.70;99.90
2851;DHT22;1433;49.976;8.342;2024-02-21T02:35:31;7.70;99.90
2851;DHT22;1433;49.976;8.342;2024-02-21T02:37:58;7.70;99.90
2851;DHT22;1433;49.976;8.342;2024-02-21T02:40:24;7.70;99.90
2851;DHT22;1433;49.976;8.342;2024-02-21T02:42:50;7.70;99.90
2851;DHT22;1433;49.976;8.342;2024-02-21T02:45:17;7.80;99.90
2851;DHT22;1433;49.976;8.342;2024-02-21T02:47:46;7.80;99.90
2851;DHT22;1433;49.976;8.342;2024-02-21T02:50:12;7.80;99.90
2851;DHT22;1433;49.976;8.342;2024-02-21T02:52:38;7.90;99.90
2851;DHT22;1433;49.976;8.342;2024-02-21T02:55:05;7.80;99.90
2851;DHT22;1433;49.976;8.342;2024-02-21T02:57:32;7.80;99.90
2851;DHT22;1433;49.976;8.342;2024-02-21T02:59:58;7.80;99.90
2851;DHT22;1433;49.976;8.342;2024-02-21T03:02:24;7.80;99.90
2851;DHT22;1433;49.976;8.342;2024-02-21T03:04:50;7.90;99.90
2851;DHT22;1433;49.976;8.342;2024-02-21T03:07:16;7.80;99.90
2851;DHT22;1433;49.976;8.342;2024-02-21T03:09:42;7.80;99.90
2851;DHT22;1433;49.976;8.342;2024-02-21T03:12:08;7.80;99.90
2851;DHT22;1433;49.976;8.342;2024-02-21T03:14:35;7.90;99.90
2851;DHT22;1433;49.976;8.342;2024-02-21T03:17:01;7.90;99.90
2851;DHT22;1433;49.976;8.342;2024-02-21T03:19:28;8.00;99.90
2851;DHT22;1433;49.976;8.342;2024-02-21T03:21:54;8.00;99.90
2851;DHT22;1433;49.976;8.342;2024-02-21T03:24:20;8.10;99.90
2851;DHT22;1433;49.976;8.342;2024-02-21T03:26:47;8.10;99.90
2851;DHT22;1433;49.976;8.342;2024-02-21T03:29:17;8.10;99.90
2851;DHT22;1433;49.976;8.342;2024-02-21T03:31:43;8.10;99.90
2851;DHT22;1433;49.976;8.342;2024-02-21T03:34:12;8.10;99.90
2851;DHT22;1433;49.976;8.342;2024-02-21T03:36:38;8.00;99.90
2851;DHT22;1433;49.976;8.342;2024-02-21T03:39:04;8.10;99.90
2851;DHT22;1433;49.976;8.342;2024-02-21T03:41:30;8.10;99.90
2851;DHT22;1433;49.976;8.342;2024-02-21T03:43:56;8.10;99.90
2851;DHT22;1433;49.976;8.342;2024-02-21T03:46:24;8.10;99.90
2851;DHT22;1433;49.976;8.342;2024-02-21T03:48:50;8.20;99.90
2851;DHT22;1433;49.976;8.342;2024-02-21T03:51:16;8.20;99.90
2851;DHT22;1433;49.976;8.342;2024-02-21T03:53:43;8.10;99.90
2851;DHT22;1433;49.976;8.342;2024-02-21T03:56:09;8.30;99.90
2851;DHT22;1433;49.976;8.342;2024-02-21T03:58:34;8.20;99.90
2851;DHT22;1433;49.976;8.342;2024-02-21T04:01:01;8.20;99.90
2851;DHT22;1433;49.976;8.342;2024-02-21T04:03:27;8.30;99.90
2851;DHT22;1433;49.976;8.342;2024-02-21T04:05:53;8.20;99.90
2851;DHT22;1433;49.976;8.342;2024-02-21T04:08:19;8.40;99.90
2851;DHT22;1433;49.976;8.342;2024-02-21T04:10:45;8.10;99.90
2851;DHT22;1433;49.976;8.342;2024-02-21T04:13:11;8.10;99.90
2851;DHT22;1433;49.976;8.342;2024-02-21T04:15:37;8.10;99.90
2851;DHT22;1433;49.976;8.342;2024-02-21T04:18:02;8.20;99.90
2851;DHT22;1433;49.976;8.342;2024-02-21T04:20:29;8.20;99.90
2851;DHT22;1433;49.976;8.342;2024-02-21T04:22:55;8.20;99.90
2851;DHT22;1433;49.976;8.342;2024-02-21T04:25:21;8.20;99.90
2851;DHT22;1433;49.976;8.342;2024-02-21T04:27:48;8.40;99.90
2851;DHT22;1433;49.976;8.342;2024-02-21T04:30:14;8.20;99.90
2851;DHT22;1433;49.976;8.342;2024-02-21T04:32:41;8.20;99.90
2851;DHT22;1433;49.976;8.342;2024-02-21T04:35:07;8.20;99.90
2851;DHT22;1433;49.976;8.342;2024-02-21T04:37:33;8.20;99.90
2851;DHT22;1433;49.976;8.342;2024-02-21T04:39:59;8.40;99.90
2851;DHT22;1433;49.976;8.342;2024-02-21T04:42:25;8.20;99.90
2851;DHT22;1433;49.976;8.342;2024-02-21T04:44:51;8.20;99.90
2851;DHT22;1433;49.976;8.342;2024-02-21T04:47:17;8.20;99.90
2851;DHT22;1433;49.976;8.342;2024-02-21T04:49:45;8.10;90.10
2851;DHT22;1433;49.976;8.342;2024-02-21T04:52:12;8.10;56.00
2851;DHT22;1433;49.976;8.342;2024-02-21T04:54:38;8.10;69.00
2851;DHT22;1433;49.976;8.342;2024-02-21T04:57:04;8.10;50.40
2851;DHT22;1433;49.976;8.342;2024-02-21T04:59:30;8.10;33.50
2851;DHT22;1433;49.976;8.342;2024-02-21T05:01:56;8.00;17.50
2851;DHT22;1433;49.976;8.342;2024-02-21T05:04:22;8.00;1.00
2851;DHT22;1433;49.976;8.342;2024-02-21T05:06:48;8.00;1.00
2851;DHT22;1433;49.976;8.342;2024-02-21T05:09:14;8.00;1.00
2851;DHT22;1433;49.976;8.342;2024-02-21T05:11:40;8.00;1.00
2851;DHT22;1433;49.976;8.342;2024-02-21T05:14:05;8.10;1.00
2851;DHT22;1433;49.976;8.342;2024-02-21T05:16:32;8.00;1.00
2851;DHT22;1433;49.976;8.342;2024-02-21T05:18:58;8.00;1.00
2851;DHT22;1433;49.976;8.342;2024-02-21T05:21:24;8.00;1.00
2851;DHT22;1433;49.976;8.342;2024-02-21T05:23:50;8.00;1.00
2851;DHT22;1433;49.976;8.342;2024-02-21T05:26:24;8.20;1.00
2851;DHT22;1433;49.976;8.342;2024-02-21T05:28:51;8.00;1.00
2851;DHT22;1433;49.976;8.342;2024-02-21T05:31:20;8.00;1.00
2851;DHT22;1433;49.976;8.342;2024-02-21T05:33:49;8.20;1.00
2851;DHT22;1433;49.976;8.342;2024-02-21T05:36:15;8.00;1.00
2851;DHT22;1433;49.976;8.342;2024-02-21T05:38:41;8.00;1.00
2851;DHT22;1433;49.976;8.342;2024-02-21T05:41:07;8.00;37.30
2851;DHT22;1433;49.976;8.342;2024-02-21T05:43:32;8.00;1.00
2851;DHT22;1433;49.976;8.342;2024-02-21T05:45:58;8.00;1.00
2851;DHT22;1433;49.976;8.342;2024-02-21T05:48:25;8.00;1.00
2851;DHT22;1433;49.976;8.342;2024-02-21T05:50:51;7.90;1.00
2851;DHT22;1433;49.976;8.342;2024-02-21T05:53:17;7.90;1.00
2851;DHT22;1433;49.976;8.342;2024-02-21T05:55:43;7.80;1.00
2851;DHT22;1433;49.976;8.342;2024-02-21T05:58:09;7.70;1.00
2851;DHT22;1433;49.976;8.342;2024-02-21T06:00:38;7.60;31.90
2851;DHT22;1433;49.976;8.342;2024-02-21T06:03:04;7.60;99.90
2851;DHT22;1433;49.976;8.342;2024-02-21T06:05:30;7.60;99.90
2851;DHT22;1433;49.976;8.342;2024-02-21T06:07:57;7.50;99.90
2851;DHT22;1433;49.976;8.342;2024-02-21T06:10:23;7.50;99.90
2851;DHT22;1433;49.976;8.342;2024-02-21T06:12:49;7.50;99.90
2851;DHT22;1433;49.976;8.342;2024-02-21T06:15:14;7.60;99.90
2851;DHT22;1433;49.976;8.342;2024-02-21T06:17:40;7.40;99.90
2851;DHT22;1433;49.976;8.342;2024-02-21T06:20:07;7.30;99.90
2851;DHT22;1433;49.976;8.342;2024-02-21T06:22:33;7.30;99.90
2851;DHT22;1433;49.976;8.342;2024-02-21T06:24:59;7.20;99.90
2851;DHT22;1433;49.976;8.342;2024-02-21T06:27:27;7.20;99.90
2851;DHT22;1433;49.976;8.342;2024-02-21T06:29:53;7.20;99.90
2851;DHT22;1433;49.976;8.342;2024-02-21T06:32:19;7.20;99.90
2851;DHT22;1433;49.976;8.342;2024-02-21T06:34:45;7.10;99.90
2851;DHT22;1433;49.976;8.342;2024-02-21T06:37:11;7.10;99.90
2851;DHT22;1433;49.976;8.342;2024-02-21T06:39:37;7.10;99.90
2851;DHT22;1433;49.976;8.342;2024-02-21T06:42:03;7.30;99.90
2851;DHT22;1433;49.976;8.342;2024-02-21T06:44:29;7.10;99.90
2851;DHT22;1433;49.976;8.342;2024-02-21T06:46:57;7.10;99.90
2851;DHT22;1433;49.976;8.342;2024-02-21T06:49:24;7.10;99.90
2851;DHT22;1433;49.976;8.342;2024-02-21T06:51:50;7.00;99.90
2851;DHT22;1433;49.976;8.342;2024-02-21T06:54:16;7.00;99.90
2851;DHT22;1433;49.976;8.342;2024-02-21T06:56:41;7.00;99.90
2851;DHT22;1433;49.976;8.342;2024-02-21T06:59:07;7.00;99.90
2851;DHT22;1433;49.976;8.342;2024-02-21T07:01:33;7.00;99.90
2851;DHT22;1433;49.976;8.342;2024-02-21T07:03:59;7.10;99.90
2851;DHT22;1433;49.976;8.342;2024-02-21T07:06:25;7.40;99.90
2851;DHT22;1433;49.976;8.342;2024-02-21T07:08:51;7.10;99.90
2851;DHT22;1433;49.976;8.342;2024-02-21T07:11:17;7.20;99.90
2851;DHT22;1433;49.976;8.342;2024-02-21T07:13:43;7.30;99.90
2851;DHT22;1433;49.976;8.342;2024-02-21T07:16:08;7.40;99.90
2851;DHT22;1433;49.976;8.342;2024-02-21T07:18:34;7.40;99.90
2851;DHT22;1433;49.976;8.342;2024-02-21T07:21:00;7.80;99.90
2851;DHT22;1433;49.976;8.342;2024-02-21T07:23:26;7.60;99.90
2851;DHT22;1433;49.976;8.342;2024-02-21T07:25:52;7.60;99.90
2851;DHT22;1433;49.976;8.342;2024-02-21T07:28:18;7.70;99.40
2851;DHT22;1433;49.976;8.342;2024-02-21T07:30:43;7.60;72.20
2851;DHT22;1433;49.976;8.342;2024-02-21T07:33:09;7.70;45.60
2851;DHT22;1433;49.976;8.342;2024-02-21T07:35:35;7.70;22.20
2851;DHT22;1433;49.976;8.342;2024-02-21T07:38:06;7.70;8.70
2851;DHT22;1433;49.976;8.342;2024-02-21T07:40:32;7.80;5.50
2851;DHT22;1433;49.976;8.342;2024-02-21T07:42:58;7.90;1.00
2851;DHT22;1433;49.976;8.342;2024-02-21T07:45:24;7.90;1.00
2851;DHT22;1433;49.976;8.342;2024-02-21T07:47:50;7.90;1.00
2851;DHT22;1433;49.976;8.342;2024-02-21T07:50:16;7.90;1.00
2851;DHT22;1433;49.976;8.342;2024-02-21T07:52:43;7.90;1.00
2851;DHT22;1433;49.976;8.342;2024-02-21T07:55:09;8.00;1.00
2851;DHT22;1433;49.976;8.342;2024-02-21T07:57:36;8.10;1.00
2851;DHT22;1433;49.976;8.342;2024-02-21T08:00:03;8.20;1.00
2851;DHT22;1433;49.976;8.342;2024-02-21T08:02:38;8.20;1.00
2851;DHT22;1433;49.976;8.342;2024-02-21T08:05:04;8.30;1.00
2851;DHT22;1433;49.976;8.342;2024-02-21T08:07:30;8.40;1.00
2851;DHT22;1433;49.976;8.342;2024-02-21T08:09:56;8.30;1.00
2851;DHT22;1433;49.976;8.342;2024-02-21T08:12:22;8.40;1.00
2851;DHT22;1433;49.976;8.342;2024-02-21T08:14:48;8.40;1.00
2851;DHT22;1433;49.976;8.342;2024-02-21T08:17:14;8.50;1.00
2851;DHT22;1433;49.976;8.342;2024-02-21T08:19:40;8.50;1.00
2851;DHT22;1433;49.976;8.342;2024-02-21T08:22:05;8.50;99.90
2851;DHT22;1433;49.976;8.342;2024-02-21T08:24:32;8.60;99.90
2851;DHT22;1433;49.976;8.342;2024-02-21T08:26:58;8.90;99.90
2851;DHT22;1433;49.976;8.342;2024-02-21T08:29:24;8.70;99.90
2851;DHT22;1433;49.976;8.342;2024-02-21T08:31:49;8.60;99.90
2851;DHT22;1433;49.976;8.342;2024-02-21T08:34:15;8.60;99.90
2851;DHT22;1433;49.976;8.342;2024-02-21T08:36:43;8.70;99.90
2851;DHT22;1433;49.976;8.342;2024-02-21T08:39:08;8.80;99.90
2851;DHT22;1433;49.976;8.342;2024-02-21T08:41:35;8.80;99.90
2851;DHT22;1433;49.976;8.342;2024-02-21T08:44:01;8.80;99.90
2851;DHT22;1433;49.976;8.342;2024-02-21T08:46:30;8.90;99.90
2851;DHT22;1433;49.976;8.342;2024-02-21T08:48:55;9.10;1.00
2851;DHT22;1433;49.976;8.342;2024-02-21T08:51:21;8.90;1.00
2851;DHT22;1433;49.976;8.342;2024-02-21T08:53:48;8.80;10.80
2851;DHT22;1433;49.976;8.342;2024-02-21T08:56:15;8.90;1.00
2851;DHT22;1433;49.976;8.342;2024-02-21T08:58:41;8.90;1.00
2851;DHT22;1433;49.976;8.342;2024-02-21T09:01:08;9.00;1.00
2851;DHT22;1433;49.976;8.342;2024-02-21T09:03:37;9.20;1.00
2851;DHT22;1433;49.976;8.342;2024-02-21T09:06:07;9.50;1.00
2851;DHT22;1433;49.976;8.342;2024-02-21T09:08:34;9.70;1.00
2851;DHT22;1433;49.976;8.342;2024-02-21T09:11:06;9.80;1.00
2851;DHT22;1433;49.976;8.342;2024-02-21T09:13:32;9.90;95.00
2851;DHT22;1433;49.976;8.342;2024-02-21T09:15:58;9.90;99.90
2851;DHT22;1433;49.976;8.342;2024-02-21T09:18:23;9.90;1.00
2851;DHT22;1433;49.976;8.342;2024-02-21T09:20:49;10.00;99.90
2851;DHT22;1433;49.976;8.342;2024-02-21T09:23:16;10.00;1.00
2851;DHT22;1433;49.976;8.342;2024-02-21T09:25:42;10.10;99.90
2851;DHT22;1433;49.976;8.342;2024-02-21T09:28:08;9.70;1.00
2851;DHT22;1433;49.976;8.342;2024-02-21T09:30:36;9.90;99.90
2851;DHT22;1433;49.976;8.342;2024-02-21T09:33:03;9.90;99.90
2851;DHT22;1433;49.976;8.342;2024-02-21T09:35:30;9.80;99.90
2851;DHT22;1433;49.976;8.342;2024-02-21T09:37:59;9.90;99.90
2851;DHT22;1433;49.976;8.342;2024-02-21T09:40:25;10.20;99.90
2851;DHT22;1433;49.976;8.342;2024-02-21T09:43:04;9.90;99.90
2851;DHT22;1433;49.976;8.342;2024-02-21T09:45:33;10.00;39.80
2851;DHT22;1433;49.976;8.342;2024-02-21T09:48:22;10.00;1.00
2851;DHT22;1433;49.976;8.342;2024-02-21T09:50:57;9.90;64.00
2851;DHT22;1433;49.976;8.342;2024-02-21T09:53:24;9.90;1.00
2851;DHT22;1433;49.976;8.342;2024-02-21T09:55:51;10.00;1.00
2851;DHT22;1433;49.976;8.342;2024-02-21T09:58:18;9.90;1.00
2851;DHT22;1433;49.976;8.342;2024-02-21T10:00:44;9.90;1.00
2851;DHT22;1433;49.976;8.342;2024-02-21T10:03:10;10.00;1.00
2851;DHT22;1433;49.976;8.342;2024-02-21T10:05:36;10.20;1.00
2851;DHT22;1433;49.976;8.342;2024-02-21T10:08:04;10.20;1.00
2851;DHT22;1433;49.976;8.342;2024-02-21T10:10:40;10.40;1.00
2851;DHT22;1433;49.976;8.342;2024-02-21T10:13:06;10.50;1.00
2851;DHT22;1433;49.976;8.342;2024-02-21T10:15:33;10.50;99.90
2851;DHT22;1433;49.976;8.342;2024-02-21T10:18:01;10.60;99.90
2851;DHT22;1433;49.976;8.342;2024-02-21T10:20:29;10.60;99.90
2851;DHT22;1433;49.976;8.342;2024-02-21T10:23:05;10.50;99.90
2851;DHT22;1433;49.976;8.342;2024-02-21T10:25:35;10.60;99.90
2851;DHT22;1433;49.976;8.342;2024-02-21T10:28:04;10.70;99.90
2851;DHT22;1433;49.976;8.342;2024-02-21T10:30:30;10.60;12.00
2851;DHT22;1433;49.976;8.342;2024-02-21T10:32:56;10.50;99.90
2851;DHT22;1433;49.976;8.342;2024-02-21T10:35:30;10.80;99.90
2851;DHT22;1433;49.976;8.342;2024-02-21T10:37:57;10.60;99.90
2851;DHT22;1433;49.976;8.342;2024-02-21T10:40:25;10.80;99.90
2851;DHT22;1433;49.976;8.342;2024-02-21T10:43:00;11.00;99.90
2851;DHT22;1433;49.976;8.342;2024-02-21T10:45:36;11.50;1.00
2851;DHT22;1433;49.976;8.342;2024-02-21T10:48:12;11.50;1.00
2851;DHT22;1433;49.976;8.342;2024-02-21T10:51:14;11.50;1.00
2851;DHT22;1433;49.976;8.342;2024-02-21T10:56:31;11.30;99.90
2851;DHT22;1433;49.976;8.342;2024-02-21T10:59:03;11.30;1.00
2851;DHT22;1433;49.976;8.342;2024-02-21T11:01:30;11.50;99.90
2851;DHT22;1433;49.976;8.342;2024-02-21T11:04:08;11.50;99.90
2851;DHT22;1433;49.976;8.342;2024-02-21T11:06:38;11.70;99.90
2851;DHT22;1433;49.976;8.342;2024-02-21T11:09:05;11.80;99.90
2851;DHT22;1433;49.976;8.342;2024-02-21T11:11:45;12.00;50.30
2851;DHT22;1433;49.976;8.342;2024-02-21T11:14:18;12.10;99.50
2851;DHT22;1433;49.976;8.342;2024-02-21T11:16:44;12.40;1.00
2851;DHT22;1433;49.976;8.342;2024-02-21T11:19:25;12.40;1.00
2851;DHT22;1433;49.976;8.342;2024-02-21T11:21:53;12.40;1.00
2851;DHT22;1433;49.976;8.342;2024-02-21T11:24:33;12.10;1.00
2851;DHT22;1433;49.976;8.342;2024-02-21T11:27:12;12.20;1.00
2851;DHT22;1433;49.976;8.342;2024-02-21T11:29:46;12.00;1.00
2851;DHT22;1433;49.976;8.342;2024-02-21T11:32:15;11.90;1.00
2851;DHT22;1433;49.976;8.342;2024-02-21T11:37:28;11.90;1.00
2851;DHT22;1433;49.976;8.342;2024-02-21T11:39:57;12.20;1.00
2851;DHT22;1433;49.976;8.342;2024-02-21T11:42:27;12.20;1.00
2851;DHT22;1433;49.976;8.342;2024-02-21T11:44:54;12.50;1.00
2851;DHT22;1433;49.976;8.342;2024-02-21T11:47:22;12.50;1.00
2851;DHT22;1433;49.976;8.342;2024-02-21T11:49:49;12.20;1.00
2851;DHT22;1433;49.976;8.342;2024-02-21T11:52:15;12.20;1.00
2851;DHT22;1433;49.976;8.342;2024-02-21T11:54:44;12.10;1.00
2851;DHT22;1433;49.976;8.342;2024-02-21T11:57:10;12.00;1.00
2851;DHT22;1433;49.976;8.342;2024-02-21T11:59:40;11.80;1.00
2851;DHT22;1433;49.976;8.342;2024-02-21T12:02:06;11.90;1.00
2851;DHT22;1433;49.976;8.342;2024-02-21T12:04:33;11.90;1.00
2851;DHT22;1433;49.976;8.342;2024-02-21T12:06:59;12.20;1.00
2851;DHT22;1433;49.976;8.342;2024-02-21T12:09:26;12.30;1.00
2851;DHT22;1433;49.976;8.342;2024-02-21T12:12:02;12.10;1.00
2851;DHT22;1433;49.976;8.342;2024-02-21T12:14:31;11.90;1.00
2851;DHT22;1433;49.976;8.342;2024-02-21T12:16:59;11.80;1.00
2851;DHT22;1433;49.976;8.342;2024-02-21T12:19:25;12.10;1.00
2851;DHT22;1433;49.976;8.342;2024-02-21T12:21:51;12.20;1.00
2851;DHT22;1433;49.976;8.342;2024-02-21T12:24:24;12.30;1.00
2851;DHT22;1433;49.976;8.342;2024-02-21T12:26:54;12.20;1.00
2851;DHT22;1433;49.976;8.342;2024-02-21T12:29:24;12.10;1.00
2851;DHT22;1433;49.976;8.342;2024-02-21T12:31:51;12.00;1.00
2851;DHT22;1433;49.976;8.342;2024-02-21T12:34:17;12.10;1.00
2851;DHT22;1433;49.976;8.342;2024-02-21T12:36:45;12.00;1.00
2851;DHT22;1433;49.976;8.342;2024-02-21T12:39:12;12.00;1.00
2851;DHT22;1433;49.976;8.342;2024-02-21T12:41:38;12.20;1.00
2851;DHT22;1433;49.976;8.342;2024-02-21T12:44:07;12.10;1.00
2851;DHT22;1433;49.976;8.342;2024-02-21T12:46:33;12.10;1.00
2851;DHT22;1433;49.976;8.342;2024-02-21T12:49:03;11.90;1.00
2851;DHT22;1433;49.976;8.342;2024-02-21T12:51:31;11.90;1.00
2851;DHT22;1433;49.976;8.342;2024-02-21T12:53:57;11.80;1.00
2851;DHT22;1433;49.976;8.342;2024-02-21T12:56:24;12.00;1.00
2851;DHT22;1433;49.976;8.342;2024-02-21T12:58:53;11.80;1.00
2851;DHT22;1433;49.976;8.342;2024-02-21T13:01:19;12.00;1.00
2851;DHT22;1433;49.976;8.342;2024-02-21T13:03:45;11.80;1.00
2851;DHT22;1433;49.976;8.342;2024-02-21T13:06:12;12.10;1.00
2851;DHT22;1433;49.976;8.342;2024-02-21T13:08:38;11.90;1.00
2851;DHT22;1433;49.976;8.342;2024-02-21T13:11:05;11.80;1.00
2851;DHT22;1433;49.976;8.342;2024-02-21T13:13:31;11.80;1.00
2851;DHT22;1433;49.976;8.342;2024-02-21T13:15:58;12.00;1.00
2851;DHT22;1433;49.976;8.342;2024-02-21T13:18:24;12.10;1.00
2851;DHT22;1433;49.976;8.342;2024-02-21T13:20:50;12.20;1.00
2851;DHT22;1433;49.976;8.342;2024-02-21T13:23:16;12.10;1.00
2851;DHT22;1433;49.976;8.342;2024-02-21T13:25:41;12.20;1.00
2851;DHT22;1433;49.976;8.342;2024-02-21T13:28:07;12.20;1.00
2851;DHT22;1433;49.976;8.342;2024-02-21T13:30:35;12.20;1.00
2851;DHT22;1433;49.976;8.342;2024-02-21T13:33:01;12.40;1.00
2851;DHT22;1433;49.976;8.342;2024-02-21T13:35:28;12.40;1.00
2851;DHT22;1433;49.976;8.342;2024-02-21T13:37:54;12.60;1.00
2851;DHT22;1433;49.976;8.342;2024-02-21T13:40:20;12.60;1.00
2851;DHT22;1433;49.976;8.342;2024-02-21T13:42:46;12.60;1.00
2851;DHT22;1433;49.976;8.342;2024-02-21T13:45:14;12.50;1.00
2851;DHT22;1433;49.976;8.342;2024-02-21T13:47:40;12.60;1.00
2851;DHT22;1433;49.976;8.342;2024-02-21T13:50:06;12.60;1.00
2851;DHT22;1433;49.976;8.342;2024-02-21T13:52:37;12.40;1.00
2851;DHT22;1433;49.976;8.342;2024-02-21T13:55:03;12.50;1.00
2851;DHT22;1433;49.976;8.342;2024-02-21T13:57:29;12.60;1.00
2851;DHT22;1433;49.976;8.342;2024-02-21T13:59:55;12.40;1.00
2851;DHT22;1433;49.976;8.342;2024-02-21T14:02:21;12.50;1.00
2851;DHT22;1433;49.976;8.342;2024-02-21T14:04:47;12.50;1.00
2851;DHT22;1433;49.976;8.342;2024-02-21T14:07:13;12.50;1.00
2851;DHT22;1433;49.976;8.342;2024-02-21T14:09:39;12.40;1.00
2851;DHT22;1433;49.976;8.342;2024-02-21T14:12:05;12.30;1.00
2851;DHT22;1433;49.976;8.342;2024-02-21T14:14:35;12.30;1.00
2851;DHT22;1433;49.976;8.342;2024-02-21T14:17:02;12.60;1.00
2851;DHT22;1433;49.976;8.342;2024-02-21T14:19:29;12.30;1.00
2851;DHT22;1433;49.976;8.342;2024-02-21T14:21:55;12.30;1.00
2851;DHT22;1433;49.976;8.342;2024-02-21T14:24:23;12.20;1.00
2851;DHT22;1433;49.976;8.342;2024-02-21T14:26:49;12.20;1.00
2851;DHT22;1433;49.976;8.342;2024-02-21T14:29:15;12.10;1.00
2851;DHT22;1433;49.976;8.342;2024-02-21T14:31:41;12.20;1.00
2851;DHT22;1433;49.976;8.342;2024-02-21T14:34:06;12.40;1.00
2851;DHT22;1433;49.976;8.342;2024-02-21T14:36:33;12.50;1.00
2851;DHT22;1433;49.976;8.342;2024-02-21T14:38:59;12.60;1.00
2851;DHT22;1433;49.976;8.342;2024-02-21T14:41:25;12.60;1.00
2851;DHT22;1433;49.976;8.342;2024-02-21T14:43:51;12.40;1.00
2851;DHT22;1433;49.976;8.342;2024-02-21T14:46:17;12.50;1.00
2851;DHT22;1433;49.976;8.342;2024-02-21T14:48:43;12.60;1.00
2851;DHT22;1433;49.976;8.342;2024-02-21T14:51:10;12.80;1.00
2851;DHT22;1433;49.976;8.342;2024-02-21T14:53:38;12.30;1.00
2851;DHT22;1433;49.976;8.342;2024-02-21T14:56:05;12.30;1.00
2851;DHT22;1433;49.976;8.342;2024-02-21T14:58:32;12.00;1.00
2851;DHT22;1433;49.976;8.342;2024-02-21T15:00:58;12.20;1.00
2851;DHT22;1433;49.976;8.342;2024-02-21T15:03:24;12.30;1.00
2851;DHT22;1433;49.976;8.342;2024-02-21T15:05:52;12.40;1.00
2851;DHT22;1433;49.976;8.342;2024-02-21T15:08:19;12.30;1.00
2851;DHT22;1433;49.976;8.342;2024-02-21T15:10:45;12.30;1.00
2851;DHT22;1433;49.976;8.342;2024-02-21T15:13:11;12.20;1.00
2851;DHT22;1433;49.976;8.342;2024-02-21T15:15:37;12.30;1.00
2851;DHT22;1433;49.976;8.342;2024-02-21T15:18:02;12.20;1.00
2851;DHT22;1433;49.976;8.342;2024-02-21T15:20:29;12.10;59.30
2851;DHT22;1433;49.976;8.342;2024-02-21T15:22:55;12.00;99.90
2851;DHT22;1433;49.976;8.342;2024-02-21T15:25:21;11.90;99.90
2851;DHT22;1433;49.976;8.342;2024-02-21T15:27:47;11.80;99.90
2851;DHT22;1433;49.976;8.342;2024-02-21T15:30:14;11.70;99.90
2851;DHT22;1433;49.976;8.342;2024-02-21T15:32:40;11.80;99.90
2851;DHT22;1433;49.976;8.342;2024-02-21T15:35:09;11.60;99.90
2851;DHT22;1433;49.976;8.342;2024-02-21T15:37:35;11.70;99.90
2851;DHT22;1433;49.976;8.342;2024-02-21T15:40:02;11.60;99.90
2851;DHT22;1433;49.976;8.342;2024-02-21T15:42:30;11.50;99.90
2851;DHT22;1433;49.976;8.342;2024-02-21T15:44:58;11.50;99.90
2851;DHT22;1433;49.976;8.342;2024-02-21T15:47:27;11.50;99.90
2851;DHT22;1433;49.976;8.342;2024-02-21T15:49:53;11.50;99.90
2851;DHT22;1433;49.976;8.342;2024-02-21T15:52:19;11.40;99.90
2851;DHT22;1433;49.976;8.342;2024-02-21T15:54:46;11.60;99.90
2851;DHT22;1433;49.976;8.342;2024-02-21T15:57:12;11.30;99.90
2851;DHT22;1433;49.976;8.342;2024-02-21T15:59:38;11.30;99.90
2851;DHT22;1433;49.976;8.342;2024-02-21T16:02:05;11.50;99.90
2851;DHT22;1433;49.976;8.342;2024-02-21T16:04:31;11.40;99.90
2851;DHT22;1433;49.976;8.342;2024-02-21T16:07:01;11.30;99.90
2851;DHT22;1433;49.976;8.342;2024-02-21T16:09:27;11.20;99.90
2851;DHT22;1433;49.976;8.342;2024-02-21T16:11:57;11.20;99.90
2851;DHT22;1433;49.976;8.342;2024-02-21T16:14:24;11.10;99.90
2851;DHT22;1433;49.976;8.342;2024-02-21T16:16:52;11.10;99.90
2851;DHT22;1433;49.976;8.342;2024-02-21T16:19:17;11.20;99.90
2851;DHT22;1433;49.976;8.342;2024-02-21T16:21:43;11.20;99.90
2851;DHT22;1433;49.976;8.342;2024-02-21T16:24:09;11.10;99.90